createdAt,value
2023-05-15T00:00:15.261Z,13.15
2023-05-15T00:02:41.136Z,13.20
2023-05-15T00:05:05.184Z,13.12
2023-05-15T00:07:27.991Z,13.20
2023-05-15T00:09:50.531Z,13.20
2023-05-15T00:12:13.190Z,13.15
2023-05-15T00:14:35.800Z,13.09
2023-05-15T00:16:58.400Z,13.07
2023-05-15T00:19:21.056Z,13.23
2023-05-15T00:21:43.769Z,13.27
2023-05-15T00:24:06.512Z,13.26
2023-05-15T00:26:31.101Z,13.27
2023-05-15T00:28:53.674Z,13.24
2023-05-15T00:31:16.939Z,13.24
2023-05-15T00:33:39.631Z,13.22
2023-05-15T00:36:02.241Z,13.34
2023-05-15T00:38:24.866Z,13.26
2023-05-15T00:40:48.626Z,13.27
2023-05-15T00:43:11.654Z,13.24
2023-05-15T00:45:35.102Z,13.40
2023-05-15T00:47:59.255Z,13.43
2023-05-15T00:50:22.498Z,13.34
2023-05-15T00:52:46.117Z,13.39
2023-05-15T00:55:09.173Z,13.33
2023-05-15T00:57:32.192Z,13.28
2023-05-15T00:59:57.346Z,13.20
2023-05-15T01:02:20.405Z,13.15
2023-05-15T01:04:43.232Z,13.15
2023-05-15T01:07:06.025Z,13.24
2023-05-15T01:09:31.323Z,13.06
2023-05-15T01:11:57.093Z,13.09
2023-05-15T01:14:19.632Z,13.12
2023-05-15T01:16:42.382Z,13.15
2023-05-15T01:19:05.447Z,13.23
2023-05-15T01:21:37.474Z,13.19
2023-05-15T01:24:12.800Z,13.13
2023-05-15T01:27:22.382Z,13.07
2023-05-15T01:30:03.809Z,13.12
2023-05-15T01:32:51.370Z,13.12
2023-05-15T01:35:24.056Z,13.12
2023-05-15T01:37:51.340Z,13.17
2023-05-15T01:40:16.335Z,13.15
2023-05-15T01:42:42.655Z,13.28
2023-05-15T01:45:09.015Z,13.47
2023-05-15T01:47:48.366Z,13.60
2023-05-15T01:50:14.529Z,13.40
2023-05-15T01:52:41.554Z,13.40
2023-05-15T01:55:08.800Z,13.40
2023-05-15T01:57:32.232Z,13.39
2023-05-15T01:59:55.551Z,13.48
2023-05-15T02:02:18.743Z,13.53
2023-05-15T02:04:43.509Z,13.58
2023-05-15T02:07:07.596Z,13.57
2023-05-15T02:09:32.006Z,13.57
2023-05-15T02:11:56.827Z,13.75
2023-05-15T02:14:20.814Z,13.84
2023-05-15T02:16:43.926Z,13.91
2023-05-15T02:19:06.632Z,14.05
2023-05-15T02:21:29.386Z,13.98
2023-05-15T02:23:52.032Z,13.98
2023-05-15T02:26:21.588Z,14.01
2023-05-15T02:29:25.802Z,13.89
2023-05-15T02:32:00.771Z,14.01
2023-05-15T02:34:44.866Z,14.00
2023-05-15T02:37:10.989Z,14.06
2023-05-15T02:39:34.456Z,14.06
2023-05-15T02:41:58.113Z,14.06
2023-05-15T02:44:21.971Z,14.01
2023-05-15T02:46:44.793Z,13.75
2023-05-15T02:49:08.112Z,13.82
2023-05-15T02:51:31.202Z,13.79
2023-05-15T02:53:55.160Z,13.91
2023-05-15T02:56:17.901Z,14.02
2023-05-15T02:58:41.563Z,14.05
2023-05-15T03:01:04.817Z,13.79
2023-05-15T03:03:27.619Z,13.81
2023-05-15T03:05:50.362Z,13.70
2023-05-15T03:08:13.153Z,13.74
2023-05-15T03:10:35.804Z,13.61
2023-05-15T03:12:58.507Z,13.65
2023-05-15T03:15:21.315Z,13.63
2023-05-15T03:17:43.919Z,13.54
2023-05-15T03:20:07.486Z,13.67
2023-05-15T03:22:30.066Z,13.74
2023-05-15T03:24:52.743Z,13.65
2023-05-15T03:27:15.485Z,13.77
2023-05-15T03:29:38.525Z,13.88
2023-05-15T03:32:01.051Z,13.91
2023-05-15T03:34:23.651Z,14.01
2023-05-15T03:36:46.223Z,14.05
2023-05-15T03:39:09.010Z,13.74
2023-05-15T03:41:33.514Z,13.95
2023-05-15T03:43:56.136Z,14.06
2023-05-15T03:46:18.760Z,14.12
2023-05-15T03:48:41.424Z,14.02
2023-05-15T03:51:04.249Z,14.12
2023-05-15T03:53:26.990Z,14.13
2023-05-15T03:55:49.643Z,13.97
2023-05-15T03:58:12.223Z,13.91
2023-05-15T04:00:34.916Z,14.01
2023-05-15T04:02:57.643Z,14.12
2023-05-15T04:05:21.875Z,13.95
2023-05-15T04:07:44.661Z,14.15
2023-05-15T04:10:09.222Z,14.23
2023-05-15T04:12:34.057Z,14.36
2023-05-15T04:15:13.262Z,14.41
2023-05-15T04:17:36.211Z,14.25
2023-05-15T04:19:59.297Z,14.34
2023-05-15T04:22:21.932Z,14.30
2023-05-15T04:24:44.532Z,14.34
2023-05-15T04:27:07.182Z,14.37
2023-05-15T04:29:29.816Z,14.36
2023-05-15T04:31:52.596Z,14.33
2023-05-15T04:34:16.069Z,14.43
2023-05-15T04:36:40.647Z,14.41
2023-05-15T04:39:04.123Z,14.49
2023-05-15T04:41:26.868Z,14.47
2023-05-15T04:43:49.464Z,14.57
2023-05-15T04:46:12.119Z,14.60
2023-05-15T04:48:34.685Z,14.61
2023-05-15T04:50:57.250Z,14.71
2023-05-15T04:53:19.811Z,14.73
2023-05-15T04:55:42.544Z,14.70
2023-05-15T04:58:05.132Z,14.60
2023-05-15T05:00:29.058Z,14.80
2023-05-15T05:02:51.667Z,14.84
2023-05-15T05:05:15.052Z,14.94
2023-05-15T05:07:37.699Z,14.99
2023-05-15T05:10:00.337Z,14.98
2023-05-15T05:12:24.271Z,15.02
2023-05-15T05:14:48.122Z,15.08
2023-05-15T05:17:10.936Z,15.16
2023-05-15T05:19:33.613Z,15.14
2023-05-15T05:21:58.510Z,15.18
2023-05-15T05:24:24.062Z,15.11
2023-05-15T05:26:47.140Z,15.12
2023-05-15T05:29:09.864Z,15.06
2023-05-15T05:31:32.639Z,15.18
2023-05-15T05:33:55.895Z,15.26
2023-05-15T05:36:19.194Z,15.35
2023-05-15T05:38:42.699Z,15.47
2023-05-15T05:41:05.543Z,15.56
2023-05-15T05:43:28.559Z,15.57
2023-05-15T05:45:51.260Z,15.70
2023-05-15T05:48:14.920Z,15.63
2023-05-15T05:50:40.693Z,15.73
2023-05-15T05:53:03.499Z,15.83
2023-05-15T05:55:26.595Z,15.76
2023-05-15T05:57:49.692Z,15.67
2023-05-15T06:00:12.934Z,15.80
2023-05-15T06:02:40.498Z,16.15
2023-05-15T06:05:03.700Z,16.52
2023-05-15T06:07:26.715Z,16.72
2023-05-15T06:09:49.450Z,16.88
2023-05-15T06:17:50.210Z,16.66
2023-05-15T07:29:07.559Z,17.73
2023-05-15T07:31:33.794Z,17.52
2023-05-15T07:33:56.615Z,17.44
2023-05-15T07:36:19.682Z,17.69
2023-05-15T07:38:42.624Z,17.83
2023-05-15T09:21:34.114Z,21.59
2023-05-15T09:24:18.142Z,21.57
2023-05-15T09:26:42.018Z,21.30
2023-05-15T09:29:04.837Z,20.92
2023-05-15T09:42:07.089Z,22.12
2023-05-15T09:44:29.888Z,22.02
2023-05-15T09:46:53.258Z,21.97
2023-05-15T09:49:49.174Z,22.11
2023-05-15T09:52:12.446Z,22.55
2023-05-15T09:54:36.250Z,22.82
2023-05-15T09:57:11.755Z,22.49
2023-05-15T09:59:34.458Z,22.12
2023-05-15T10:01:57.197Z,22.02
2023-05-15T10:04:19.931Z,21.66
2023-05-15T10:06:48.024Z,21.59
2023-05-15T10:09:11.407Z,21.93
2023-05-15T10:11:35.996Z,22.08
2023-05-15T10:13:59.440Z,21.87
2023-05-15T10:16:23.268Z,22.08
2023-05-15T10:18:47.453Z,22.29
2023-05-15T10:21:10.277Z,22.25
2023-05-15T10:23:41.237Z,21.90
2023-05-15T10:26:14.369Z,21.66
2023-05-15T10:28:38.039Z,21.56
2023-05-15T10:31:02.132Z,21.66
2023-05-15T10:33:25.734Z,21.39
2023-05-15T10:35:49.135Z,21.42
2023-05-15T10:38:12.791Z,21.15
2023-05-15T10:40:38.098Z,21.09
2023-05-15T10:43:03.963Z,21.25
2023-05-15T10:45:27.109Z,21.40
2023-05-15T10:47:51.123Z,21.64
2023-05-15T10:50:14.424Z,21.50
2023-05-15T10:52:38.628Z,21.77
2023-05-15T10:55:01.690Z,21.98
2023-05-15T10:57:24.709Z,22.02
2023-05-15T10:59:47.386Z,22.22
2023-05-15T11:02:20.455Z,22.46
2023-05-15T11:04:44.500Z,22.32
2023-05-15T11:07:15.014Z,22.32
2023-05-15T11:09:39.093Z,21.94
2023-05-15T11:12:03.306Z,21.76
2023-05-15T11:14:26.935Z,21.66
2023-05-15T11:16:55.650Z,21.87
2023-05-15T11:19:25.465Z,21.91
2023-05-15T11:21:47.985Z,21.90
2023-05-15T11:24:11.798Z,21.90
2023-05-15T11:26:34.805Z,22.01
2023-05-15T11:29:17.787Z,22.09
2023-05-15T11:31:40.765Z,22.05
2023-05-15T11:34:05.801Z,22.07
2023-05-15T11:36:28.998Z,22.36
2023-05-15T11:38:52.781Z,22.38
2023-05-15T11:41:21.788Z,22.07
2023-05-15T11:43:44.994Z,22.28
2023-05-15T11:46:08.716Z,22.39
2023-05-15T11:48:40.061Z,22.38
2023-05-15T11:51:04.367Z,22.41
2023-05-15T11:53:29.421Z,22.18
2023-05-15T11:55:54.596Z,21.81
2023-05-15T11:58:18.999Z,21.25
2023-05-15T12:00:46.622Z,21.13
2023-05-15T12:03:23.364Z,20.78
2023-05-15T12:05:57.578Z,20.56
2023-05-15T12:08:22.245Z,20.34
2023-05-15T12:10:46.208Z,20.22
2023-05-15T12:13:08.942Z,19.96
2023-05-15T12:15:31.675Z,19.74
2023-05-15T12:17:54.494Z,19.57
2023-05-15T12:20:18.882Z,19.44
2023-05-15T12:22:45.258Z,19.28
2023-05-15T12:25:08.471Z,19.12
2023-05-15T12:27:31.480Z,19.31
2023-05-15T12:29:55.322Z,19.51
2023-05-15T12:32:18.374Z,19.49
2023-05-15T12:34:41.299Z,19.77
2023-05-15T12:37:04.439Z,20.02
2023-05-15T12:39:27.353Z,20.12
2023-05-15T12:41:54.201Z,20.19
2023-05-15T12:44:21.099Z,20.50
2023-05-15T12:46:43.920Z,20.60
2023-05-15T12:49:06.581Z,20.70
2023-05-15T12:51:30.069Z,20.75
2023-05-15T12:53:58.263Z,20.78
2023-05-15T12:56:21.463Z,20.70
2023-05-15T12:58:44.246Z,20.74
2023-05-15T13:01:07.342Z,20.47
2023-05-15T13:03:31.850Z,20.51
2023-05-15T13:05:55.109Z,20.70
2023-05-15T13:08:18.651Z,20.90
2023-05-15T13:10:41.329Z,21.08
2023-05-15T13:13:03.954Z,21.18
2023-05-15T13:15:40.545Z,21.32
2023-05-15T13:18:12.962Z,21.26
2023-05-15T13:20:40.928Z,20.91
2023-05-15T13:23:03.869Z,20.77
2023-05-15T13:25:26.716Z,20.65
2023-05-15T13:27:50.284Z,20.48
2023-05-15T13:30:17.345Z,20.61
2023-05-15T13:32:40.208Z,20.70
2023-05-15T13:35:03.111Z,20.91
2023-05-15T13:37:25.840Z,20.63
2023-05-15T13:39:48.359Z,20.43
2023-05-15T13:42:10.987Z,20.08
2023-05-15T13:44:35.849Z,20.16
2023-05-15T13:46:59.874Z,20.37
2023-05-15T13:49:22.643Z,20.15
2023-05-15T13:51:45.766Z,19.65
2023-05-15T13:54:08.507Z,19.86
2023-05-15T13:56:31.234Z,19.93
2023-05-15T13:58:53.954Z,19.72
2023-05-15T14:01:16.622Z,19.51
2023-05-15T14:03:39.436Z,19.47
2023-05-15T14:06:02.206Z,18.95
2023-05-15T14:08:24.834Z,18.47
2023-05-15T14:10:47.482Z,18.34
2023-05-15T14:13:10.199Z,18.03
2023-05-15T14:15:32.871Z,18.09
2023-05-15T14:17:55.572Z,18.23
2023-05-15T14:20:18.227Z,17.96
2023-05-15T14:22:41.253Z,17.85
2023-05-15T14:25:05.522Z,17.59
2023-05-15T14:27:28.252Z,17.55
2023-05-15T14:29:51.436Z,17.62
2023-05-15T14:32:14.181Z,17.78
2023-05-15T14:34:37.085Z,17.96
2023-05-15T14:36:59.692Z,17.96
2023-05-15T14:39:22.305Z,17.96
2023-05-15T14:41:45.728Z,17.87
2023-05-15T14:44:08.386Z,17.97
2023-05-15T14:46:31.018Z,17.96
2023-05-15T14:48:53.699Z,18.21
2023-05-15T14:51:18.356Z,18.27
2023-05-15T14:53:42.881Z,18.31
2023-05-15T14:56:06.054Z,18.49
2023-05-15T14:58:29.226Z,18.54
2023-05-15T15:00:51.868Z,18.43
2023-05-15T15:03:14.654Z,18.44
2023-05-15T15:05:37.352Z,18.38
2023-05-15T15:08:02.216Z,18.47
2023-05-15T15:10:25.100Z,18.14
2023-05-15T15:12:47.920Z,18.27
2023-05-15T15:15:11.085Z,18.06
2023-05-15T15:17:33.799Z,18.13
2023-05-15T15:19:56.512Z,18.40
2023-05-15T15:22:19.162Z,18.34
2023-05-15T15:24:41.806Z,18.31
2023-05-15T15:27:04.473Z,18.40
2023-05-15T15:29:27.111Z,18.43
2023-05-15T15:31:50.103Z,18.49
2023-05-15T15:34:12.834Z,18.49
2023-05-15T15:36:38.674Z,18.68
2023-05-15T15:39:01.346Z,18.45
2023-05-15T15:41:23.984Z,18.38
2023-05-15T15:43:46.577Z,18.55
2023-05-15T15:46:09.708Z,18.84
2023-05-15T15:48:32.468Z,18.79
2023-05-15T15:50:55.125Z,18.54
2023-05-15T15:53:17.753Z,18.55
2023-05-15T15:55:40.928Z,18.41
2023-05-15T15:58:04.357Z,18.41
2023-05-15T16:00:27.238Z,18.47
2023-05-15T16:02:50.133Z,18.34
2023-05-15T16:05:12.811Z,18.09
2023-05-15T16:07:35.619Z,18.01
2023-05-15T16:10:11.531Z,18.03
2023-05-15T16:12:35.351Z,18.21
2023-05-15T16:15:00.243Z,18.13
2023-05-15T16:17:29.652Z,18.11
2023-05-15T16:19:52.267Z,18.27
2023-05-15T16:22:14.934Z,18.44
2023-05-15T16:24:37.592Z,18.48
2023-05-15T16:27:00.348Z,18.55
2023-05-15T16:29:23.631Z,18.54
2023-05-15T16:31:47.046Z,18.52
2023-05-15T16:34:09.974Z,18.61
2023-05-15T16:36:32.677Z,18.75
2023-05-15T16:38:55.489Z,18.66
2023-05-15T16:41:18.058Z,18.43
2023-05-15T16:43:40.626Z,18.66
2023-05-15T16:46:03.936Z,18.58
2023-05-15T16:48:27.594Z,18.58
2023-05-15T16:50:50.530Z,18.69
2023-05-15T16:53:15.053Z,18.71
2023-05-15T16:55:38.278Z,18.62
2023-05-15T16:58:00.845Z,18.57
2023-05-15T17:00:24.241Z,18.43
2023-05-15T17:02:47.367Z,18.34
2023-05-15T17:05:11.445Z,18.37
2023-05-15T17:07:34.316Z,18.44
2023-05-15T17:09:57.097Z,18.36
2023-05-15T17:12:20.133Z,18.34
2023-05-15T17:14:43.362Z,18.34
2023-05-15T17:17:05.917Z,18.37
2023-05-15T17:19:28.617Z,18.36
2023-05-15T17:21:51.278Z,18.26
2023-05-15T17:24:16.046Z,17.90
2023-05-15T17:26:42.273Z,17.63
2023-05-15T17:29:04.993Z,17.72
2023-05-15T17:31:29.462Z,17.76
2023-05-15T17:33:52.205Z,17.79
2023-05-15T17:36:15.305Z,17.59
2023-05-15T17:38:38.278Z,17.58
2023-05-15T17:41:00.921Z,17.66
2023-05-15T17:43:23.557Z,17.66
2023-05-15T17:45:46.294Z,17.39
2023-05-15T17:48:09.233Z,17.31
2023-05-15T17:50:31.934Z,17.34
2023-05-15T17:52:54.547Z,17.44
2023-05-15T17:55:17.225Z,17.38
2023-05-15T17:57:39.786Z,17.38
2023-05-15T18:00:02.371Z,17.34
2023-05-15T18:02:34.887Z,17.17
2023-05-15T18:04:57.565Z,17.14
2023-05-15T18:07:20.454Z,17.20
2023-05-15T18:10:24.874Z,17.15
2023-05-15T18:12:47.682Z,17.18
2023-05-15T18:15:10.777Z,17.08
2023-05-15T18:17:33.578Z,17.08
2023-05-15T18:19:56.170Z,17.11
2023-05-15T18:22:19.864Z,17.03
2023-05-15T18:24:42.490Z,17.06
2023-05-15T18:27:05.520Z,17.02
2023-05-15T18:29:29.583Z,16.87
2023-05-15T18:31:52.342Z,16.77
2023-05-15T18:34:14.901Z,16.79
2023-05-15T18:36:37.715Z,16.66
2023-05-15T18:39:00.282Z,16.62
2023-05-15T18:41:23.341Z,16.72
2023-05-15T18:43:46.441Z,16.65
2023-05-15T18:46:09.139Z,16.58
2023-05-15T18:48:31.974Z,16.60
2023-05-15T18:50:54.675Z,16.63
2023-05-15T18:53:17.226Z,16.58
2023-05-15T18:55:39.854Z,16.63
2023-05-15T18:58:02.415Z,16.59
2023-05-15T19:00:37.233Z,16.60
2023-05-15T19:03:01.823Z,16.62
2023-05-15T19:05:24.855Z,16.62
2023-05-15T19:07:47.701Z,16.56
2023-05-15T19:10:10.929Z,16.58
2023-05-15T19:12:33.836Z,16.55
2023-05-15T19:14:56.665Z,16.55
2023-05-15T19:17:20.250Z,16.55
2023-05-15T19:19:42.862Z,16.53
2023-05-15T19:22:05.644Z,16.59
2023-05-15T19:24:28.429Z,16.42
2023-05-15T19:26:51.071Z,16.41
2023-05-15T19:29:13.971Z,16.46
2023-05-15T19:31:38.651Z,16.32
2023-05-15T19:34:01.478Z,16.21
2023-05-15T19:36:24.502Z,16.21
2023-05-15T19:38:47.963Z,16.28
2023-05-15T19:41:11.085Z,16.33
2023-05-15T19:43:36.137Z,16.28
2023-05-15T19:45:58.839Z,16.24
2023-05-15T19:48:21.742Z,16.28
2023-05-15T19:50:45.835Z,16.33
2023-05-15T19:53:08.582Z,16.32
2023-05-15T19:55:31.334Z,16.26
2023-05-15T19:57:56.562Z,16.24
2023-05-15T20:00:19.747Z,16.25
2023-05-15T20:02:42.727Z,16.33
2023-05-15T20:05:05.911Z,16.35
2023-05-15T20:07:28.816Z,16.28
2023-05-15T20:09:51.478Z,16.24
2023-05-15T20:12:14.280Z,16.28
2023-05-15T20:14:37.921Z,16.29
2023-05-15T20:17:00.590Z,16.32
2023-05-15T20:19:24.807Z,16.22
2023-05-15T20:21:47.885Z,16.18
2023-05-15T20:24:10.511Z,16.25
2023-05-15T20:26:35.956Z,16.26
2023-05-15T20:28:58.693Z,16.18
2023-05-15T20:31:21.348Z,16.14
2023-05-15T20:33:44.074Z,16.14
2023-05-15T20:36:06.801Z,16.11
2023-05-15T20:38:29.441Z,16.02
2023-05-15T20:40:53.039Z,15.98
2023-05-15T20:43:15.626Z,15.73
2023-05-15T20:45:38.221Z,15.67
2023-05-15T20:48:01.254Z,15.67
2023-05-15T20:50:24.058Z,15.66
2023-05-15T20:52:47.298Z,15.67
2023-05-15T20:55:16.151Z,15.54
2023-05-15T20:57:38.835Z,15.40
2023-05-15T21:00:01.366Z,15.35
2023-05-15T21:02:24.922Z,15.46
2023-05-15T21:04:47.498Z,15.46
2023-05-15T21:07:10.407Z,15.33
2023-05-15T21:09:33.623Z,15.38
2023-05-15T21:11:56.214Z,15.39
2023-05-15T21:14:18.823Z,15.33
2023-05-15T21:16:41.642Z,15.39
2023-05-15T21:19:04.923Z,15.53
2023-05-15T21:21:27.583Z,15.43
2023-05-15T21:23:50.246Z,15.45
2023-05-15T21:26:12.812Z,15.36
2023-05-15T21:28:35.396Z,15.33
2023-05-15T21:30:58.443Z,15.47
2023-05-15T21:33:21.205Z,15.54
2023-05-15T21:35:45.406Z,15.59
2023-05-15T21:38:08.069Z,15.62
2023-05-15T21:40:30.700Z,15.50
2023-05-15T21:42:53.536Z,15.59
2023-05-15T21:45:16.285Z,15.67
2023-05-15T21:47:38.979Z,15.53
2023-05-15T21:50:01.817Z,15.40
2023-05-15T21:52:24.561Z,15.42
2023-05-15T21:54:47.141Z,15.50
2023-05-15T21:57:10.399Z,15.52
2023-05-15T21:59:32.933Z,15.52
2023-05-15T22:01:55.992Z,15.43
2023-05-15T22:04:18.733Z,15.53
2023-05-15T22:06:41.338Z,15.60
2023-05-15T22:09:03.989Z,15.62
2023-05-15T22:11:26.598Z,15.57
2023-05-15T22:13:49.290Z,15.32
2023-05-15T22:16:11.912Z,14.97
2023-05-15T22:18:35.566Z,14.85
2023-05-15T22:20:58.684Z,15.08
2023-05-15T22:23:21.478Z,15.24
2023-05-15T22:25:44.110Z,15.36
2023-05-15T22:28:06.723Z,15.31
2023-05-15T22:30:29.568Z,15.21
2023-05-15T22:32:52.334Z,15.11
2023-05-15T22:35:15.034Z,15.26
2023-05-15T22:37:37.645Z,15.29
2023-05-15T22:40:00.549Z,15.21
2023-05-15T22:42:24.222Z,15.22
2023-05-15T22:44:47.293Z,15.24
2023-05-15T22:47:10.270Z,15.25
2023-05-15T22:49:32.843Z,15.26
2023-05-15T22:51:56.882Z,15.18
2023-05-15T22:54:23.282Z,15.16
2023-05-15T22:56:46.468Z,15.18
2023-05-15T22:59:09.063Z,15.08
2023-05-15T23:01:32.361Z,15.11
2023-05-15T23:03:55.140Z,15.14
2023-05-15T23:06:18.159Z,15.12
2023-05-15T23:08:41.078Z,15.09
2023-05-15T23:11:03.854Z,14.98
2023-05-15T23:13:26.859Z,15.01
2023-05-15T23:15:49.518Z,15.06
2023-05-15T23:18:12.280Z,15.11
2023-05-15T23:20:35.093Z,15.16
2023-05-15T23:22:57.706Z,15.21
2023-05-15T23:25:20.407Z,15.21
2023-05-15T23:27:43.125Z,15.12
2023-05-15T23:30:06.856Z,15.04
2023-05-15T23:32:29.688Z,15.09
2023-05-15T23:34:53.016Z,15.09
2023-05-15T23:37:16.715Z,15.12
2023-05-15T23:39:39.412Z,15.08
2023-05-15T23:42:02.111Z,14.98
2023-05-15T23:44:24.782Z,14.98
2023-05-15T23:46:47.629Z,14.88
2023-05-15T23:49:10.462Z,14.68
2023-05-15T23:51:33.009Z,14.68
2023-05-15T23:53:55.618Z,14.74
2023-05-15T23:56:18.214Z,14.80
2023-05-15T23:58:41.498Z,14.83
